sensor_id;sensor_type;location;lat;lon;timestamp;P1;durP1;ratioP1;P2;durP2;ratioP2
28623;SDS011;15813;46.932;19.658;2022-08-01T00:01:21;3.22;;;1.80;;
28623;SDS011;15813;46.932;19.658;2022-08-01T00:03:46;3.17;;;1.98;;
28623;SDS011;15813;46.932;19.658;2022-08-01T00:06:11;12.20;;;4.63;;
28623;SDS011;15813;46.932;19.658;2022-08-01T00:08:37;3.83;;;2.55;;
28623;SDS011;15813;46.932;19.658;2022-08-01T00:11:02;5.43;;;2.65;;
28623;SDS011;15813;46.932;19.658;2022-08-01T00:13:27;7.35;;;3.05;;
28623;SDS011;15813;46.932;19.658;2022-08-01T00:15:53;7.53;;;2.88;;
28623;SDS011;15813;46.932;19.658;2022-08-01T00:18:18;6.25;;;2.50;;
28623;SDS011;15813;46.932;19.658;2022-08-01T00:20:43;5.75;;;2.55;;
28623;SDS011;15813;46.932;19.658;2022-08-01T00:23:09;9.63;;;2.50;;
28623;SDS011;15813;46.932;19.658;2022-08-01T00:25:34;4.17;;;2.43;;
28623;SDS011;15813;46.932;19.658;2022-08-01T00:27:59;5.78;;;2.47;;
28623;SDS011;15813;46.932;19.658;2022-08-01T00:30:24;3.78;;;2.42;;
28623;SDS011;15813;46.932;19.658;2022-08-01T00:32:50;7.93;;;2.50;;
28623;SDS011;15813;46.932;19.658;2022-08-01T00:35:15;6.45;;;2.08;;
28623;SDS011;15813;46.932;19.658;2022-08-01T00:37:41;2.55;;;1.73;;
28623;SDS011;15813;46.932;19.658;2022-08-01T00:40:07;8.10;;;2.50;;
28623;SDS011;15813;46.932;19.658;2022-08-01T00:42:32;5.57;;;2.60;;
28623;SDS011;15813;46.932;19.658;2022-08-01T00:44:57;4.15;;;2.25;;
28623;SDS011;15813;46.932;19.658;2022-08-01T00:47:22;3.70;;;2.30;;
28623;SDS011;15813;46.932;19.658;2022-08-01T00:49:48;7.30;;;2.65;;
28623;SDS011;15813;46.932;19.658;2022-08-01T00:52:13;6.53;;;2.30;;
28623;SDS011;15813;46.932;19.658;2022-08-01T00:54:38;6.72;;;2.55;;
28623;SDS011;15813;46.932;19.658;2022-08-01T00:57:04;3.00;;;2.22;;
28623;SDS011;15813;46.932;19.658;2022-08-01T00:59:29;6.57;;;2.65;;
28623;SDS011;15813;46.932;19.658;2022-08-01T01:01:55;4.35;;;2.45;;
28623;SDS011;15813;46.932;19.658;2022-08-01T01:04:20;10.63;;;3.03;;
28623;SDS011;15813;46.932;19.658;2022-08-01T01:09:39;5.50;;;2.33;;
28623;SDS011;15813;46.932;19.658;2022-08-01T01:14:42;4.43;;;2.53;;
28623;SDS011;15813;46.932;19.658;2022-08-01T01:17:11;3.80;;;2.47;;
28623;SDS011;15813;46.932;19.658;2022-08-01T01:19:39;6.00;;;2.40;;
28623;SDS011;15813;46.932;19.658;2022-08-01T01:27:24;6.03;;;2.47;;
28623;SDS011;15813;46.932;19.658;2022-08-01T01:29:54;2.13;;;1.80;;
28623;SDS011;15813;46.932;19.658;2022-08-01T01:32:31;5.05;;;2.42;;
28623;SDS011;15813;46.932;19.658;2022-08-01T01:34:59;4.30;;;2.30;;
28623;SDS011;15813;46.932;19.658;2022-08-01T01:37:25;5.93;;;2.65;;
28623;SDS011;15813;46.932;19.658;2022-08-01T01:39:51;4.13;;;2.55;;
28623;SDS011;15813;46.932;19.658;2022-08-01T01:42:17;6.22;;;2.28;;
28623;SDS011;15813;46.932;19.658;2022-08-01T01:44:43;4.40;;;2.65;;
28623;SDS011;15813;46.932;19.658;2022-08-01T01:47:09;3.65;;;2.28;;
28623;SDS011;15813;46.932;19.658;2022-08-01T01:49:36;3.30;;;2.30;;
28623;SDS011;15813;46.932;19.658;2022-08-01T01:52:02;4.82;;;2.30;;
28623;SDS011;15813;46.932;19.658;2022-08-01T01:54:29;6.03;;;3.38;;
28623;SDS011;15813;46.932;19.658;2022-08-01T01:56:59;3.05;;;2.60;;
28623;SDS011;15813;46.932;19.658;2022-08-01T01:59:27;5.53;;;2.83;;
28623;SDS011;15813;46.932;19.658;2022-08-01T02:01:54;4.60;;;2.70;;
28623;SDS011;15813;46.932;19.658;2022-08-01T02:04:20;4.50;;;2.40;;
28623;SDS011;15813;46.932;19.658;2022-08-01T02:06:46;4.55;;;2.97;;
28623;SDS011;15813;46.932;19.658;2022-08-01T02:09:14;7.60;;;2.90;;
28623;SDS011;15813;46.932;19.658;2022-08-01T02:11:39;3.55;;;2.63;;
28623;SDS011;15813;46.932;19.658;2022-08-01T02:14:05;6.65;;;3.47;;
28623;SDS011;15813;46.932;19.658;2022-08-01T02:16:33;5.35;;;3.33;;
28623;SDS011;15813;46.932;19.658;2022-08-01T02:18:59;5.13;;;3.35;;
28623;SDS011;15813;46.932;19.658;2022-08-01T02:21:27;5.22;;;3.35;;
28623;SDS011;15813;46.932;19.658;2022-08-01T02:23:53;12.82;;;3.33;;
28623;SDS011;15813;46.932;19.658;2022-08-01T02:26:20;5.85;;;3.22;;
28623;SDS011;15813;46.932;19.658;2022-08-01T02:28:49;2.80;;;2.22;;
28623;SDS011;15813;46.932;19.658;2022-08-01T02:31:16;5.45;;;3.05;;
28623;SDS011;15813;46.932;19.658;2022-08-01T02:33:43;5.50;;;2.78;;
28623;SDS011;15813;46.932;19.658;2022-08-01T02:36:09;3.60;;;2.70;;
28623;SDS011;15813;46.932;19.658;2022-08-01T02:38:38;5.20;;;3.17;;
28623;SDS011;15813;46.932;19.658;2022-08-01T02:41:07;6.22;;;3.42;;
28623;SDS011;15813;46.932;19.658;2022-08-01T02:43:34;16.70;;;3.05;;
28623;SDS011;15813;46.932;19.658;2022-08-01T02:46:01;4.00;;;2.95;;
28623;SDS011;15813;46.932;19.658;2022-08-01T02:48:27;10.27;;;3.03;;
28623;SDS011;15813;46.932;19.658;2022-08-01T02:50:55;4.13;;;3.20;;
28623;SDS011;15813;46.932;19.658;2022-08-01T02:53:23;4.53;;;2.55;;
28623;SDS011;15813;46.932;19.658;2022-08-01T02:55:49;4.82;;;3.35;;
28623;SDS011;15813;46.932;19.658;2022-08-01T02:58:16;7.32;;;3.60;;
28623;SDS011;15813;46.932;19.658;2022-08-01T03:00:43;5.70;;;3.22;;
28623;SDS011;15813;46.932;19.658;2022-08-01T03:03:09;8.55;;;3.65;;
28623;SDS011;15813;46.932;19.658;2022-08-01T03:05:35;5.93;;;3.38;;
28623;SDS011;15813;46.932;19.658;2022-08-01T03:08:01;5.88;;;3.30;;
28623;SDS011;15813;46.932;19.658;2022-08-01T03:10:27;4.13;;;3.17;;
28623;SDS011;15813;46.932;19.658;2022-08-01T03:12:53;5.93;;;4.10;;
28623;SDS011;15813;46.932;19.658;2022-08-01T03:15:19;6.20;;;3.40;;
28623;SDS011;15813;46.932;19.658;2022-08-01T03:17:45;7.10;;;3.70;;
28623;SDS011;15813;46.932;19.658;2022-08-01T03:20:13;5.53;;;3.60;;
28623;SDS011;15813;46.932;19.658;2022-08-01T03:22:40;5.47;;;3.35;;
28623;SDS011;15813;46.932;19.658;2022-08-01T03:25:06;3.83;;;3.13;;
28623;SDS011;15813;46.932;19.658;2022-08-01T03:27:32;5.63;;;4.00;;
28623;SDS011;15813;46.932;19.658;2022-08-01T03:29:59;4.97;;;3.65;;
28623;SDS011;15813;46.932;19.658;2022-08-01T03:32:27;6.10;;;3.83;;
28623;SDS011;15813;46.932;19.658;2022-08-01T03:34:54;6.82;;;4.43;;
28623;SDS011;15813;46.932;19.658;2022-08-01T03:37:26;9.88;;;4.07;;
28623;SDS011;15813;46.932;19.658;2022-08-01T03:39:57;5.85;;;3.83;;
28623;SDS011;15813;46.932;19.658;2022-08-01T03:42:26;7.55;;;4.28;;
28623;SDS011;15813;46.932;19.658;2022-08-01T03:44:54;6.45;;;3.60;;
28623;SDS011;15813;46.932;19.658;2022-08-01T03:47:22;7.60;;;4.05;;
28623;SDS011;15813;46.932;19.658;2022-08-01T03:49:50;11.02;;;4.68;;
28623;SDS011;15813;46.932;19.658;2022-08-01T03:52:17;7.00;;;4.10;;
28623;SDS011;15813;46.932;19.658;2022-08-01T03:54:45;17.73;;;4.90;;
28623;SDS011;15813;46.932;19.658;2022-08-01T03:57:11;17.05;;;4.15;;
28623;SDS011;15813;46.932;19.658;2022-08-01T03:59:37;19.38;;;4.13;;
28623;SDS011;15813;46.932;19.658;2022-08-01T04:02:03;17.83;;;4.30;;
28623;SDS011;15813;46.932;19.658;2022-08-01T04:04:29;11.82;;;4.57;;
28623;SDS011;15813;46.932;19.658;2022-08-01T04:06:54;12.73;;;5.10;;
28623;SDS011;15813;46.932;19.658;2022-08-01T04:09:20;7.57;;;3.97;;
28623;SDS011;15813;46.932;19.658;2022-08-01T04:11:47;9.98;;;4.15;;
28623;SDS011;15813;46.932;19.658;2022-08-01T04:14:12;17.77;;;4.32;;
28623;SDS011;15813;46.932;19.658;2022-08-01T04:16:37;12.80;;;4.22;;
28623;SDS011;15813;46.932;19.658;2022-08-01T04:19:03;6.72;;;4.00;;
28623;SDS011;15813;46.932;19.658;2022-08-01T04:21:28;9.98;;;3.85;;
28623;SDS011;15813;46.932;19.658;2022-08-01T04:23:57;8.52;;;3.20;;
28623;SDS011;15813;46.932;19.658;2022-08-01T04:26:24;12.20;;;4.72;;
28623;SDS011;15813;46.932;19.658;2022-08-01T04:28:50;8.85;;;4.13;;
28623;SDS011;15813;46.932;19.658;2022-08-01T04:31:16;8.70;;;4.53;;
28623;SDS011;15813;46.932;19.658;2022-08-01T04:33:44;9.18;;;4.82;;
28623;SDS011;15813;46.932;19.658;2022-08-01T04:36:11;9.30;;;4.28;;
28623;SDS011;15813;46.932;19.658;2022-08-01T04:38:37;17.30;;;5.47;;
28623;SDS011;15813;46.932;19.658;2022-08-01T04:41:04;42.40;;;15.43;;
28623;SDS011;15813;46.932;19.658;2022-08-01T04:43:31;15.52;;;6.88;;
28623;SDS011;15813;46.932;19.658;2022-08-01T04:45:56;26.27;;;7.57;;
28623;SDS011;15813;46.932;19.658;2022-08-01T04:48:23;24.42;;;10.48;;
28623;SDS011;15813;46.932;19.658;2022-08-01T04:50:49;31.45;;;10.55;;
28623;SDS011;15813;46.932;19.658;2022-08-01T04:53:15;17.77;;;8.13;;
28623;SDS011;15813;46.932;19.658;2022-08-01T04:55:42;23.88;;;7.28;;
28623;SDS011;15813;46.932;19.658;2022-08-01T04:58:08;26.42;;;8.88;;
28623;SDS011;15813;46.932;19.658;2022-08-01T05:00:33;19.65;;;8.13;;
28623;SDS011;15813;46.932;19.658;2022-08-01T05:02:59;16.13;;;6.85;;
28623;SDS011;15813;46.932;19.658;2022-08-01T05:05:24;11.20;;;7.17;;
28623;SDS011;15813;46.932;19.658;2022-08-01T05:07:51;8.52;;;4.07;;
28623;SDS011;15813;46.932;19.658;2022-08-01T05:10:16;9.00;;;4.38;;
28623;SDS011;15813;46.932;19.658;2022-08-01T05:12:41;10.25;;;3.60;;
28623;SDS011;15813;46.932;19.658;2022-08-01T05:15:07;7.07;;;3.92;;
28623;SDS011;15813;46.932;19.658;2022-08-01T05:17:32;5.57;;;3.50;;
28623;SDS011;15813;46.932;19.658;2022-08-01T05:19:57;8.77;;;4.07;;
28623;SDS011;15813;46.932;19.658;2022-08-01T05:22:23;13.02;;;4.03;;
28623;SDS011;15813;46.932;19.658;2022-08-01T05:24:50;12.00;;;4.20;;
28623;SDS011;15813;46.932;19.658;2022-08-01T05:27:16;11.85;;;3.72;;
28623;SDS011;15813;46.932;19.658;2022-08-01T05:29:41;7.40;;;3.53;;
28623;SDS011;15813;46.932;19.658;2022-08-01T05:32:06;6.63;;;3.45;;
28623;SDS011;15813;46.932;19.658;2022-08-01T05:34:32;6.75;;;3.35;;
28623;SDS011;15813;46.932;19.658;2022-08-01T05:36:57;7.97;;;3.42;;
28623;SDS011;15813;46.932;19.658;2022-08-01T05:39:22;6.35;;;3.22;;
28623;SDS011;15813;46.932;19.658;2022-08-01T05:41:48;5.72;;;2.95;;
28623;SDS011;15813;46.932;19.658;2022-08-01T05:44:13;8.40;;;3.17;;
28623;SDS011;15813;46.932;19.658;2022-08-01T05:46:38;6.43;;;3.60;;
28623;SDS011;15813;46.932;19.658;2022-08-01T05:49:04;9.57;;;3.00;;
28623;SDS011;15813;46.932;19.658;2022-08-01T05:51:29;5.88;;;3.13;;
28623;SDS011;15813;46.932;19.658;2022-08-01T05:53:55;8.98;;;3.00;;
28623;SDS011;15813;46.932;19.658;2022-08-01T05:56:21;4.70;;;2.85;;
28623;SDS011;15813;46.932;19.658;2022-08-01T05:58:46;6.55;;;2.80;;
28623;SDS011;15813;46.932;19.658;2022-08-01T06:01:12;9.80;;;3.15;;
28623;SDS011;15813;46.932;19.658;2022-08-01T06:03:37;7.63;;;2.15;;
28623;SDS011;15813;46.932;19.658;2022-08-01T06:06:02;5.80;;;2.90;;
28623;SDS011;15813;46.932;19.658;2022-08-01T06:08:28;8.70;;;2.95;;
28623;SDS011;15813;46.932;19.658;2022-08-01T06:10:53;12.45;;;2.80;;
28623;SDS011;15813;46.932;19.658;2022-08-01T06:13:19;4.68;;;3.00;;
28623;SDS011;15813;46.932;19.658;2022-08-01T06:15:44;6.43;;;2.58;;
28623;SDS011;15813;46.932;19.658;2022-08-01T06:18:10;3.50;;;2.10;;
28623;SDS011;15813;46.932;19.658;2022-08-01T06:20:35;9.63;;;2.70;;
28623;SDS011;15813;46.932;19.658;2022-08-01T06:23:00;8.32;;;2.33;;
28623;SDS011;15813;46.932;19.658;2022-08-01T06:25:26;7.05;;;2.30;;
28623;SDS011;15813;46.932;19.658;2022-08-01T06:27:52;7.28;;;2.50;;
28623;SDS011;15813;46.932;19.658;2022-08-01T06:30:17;3.85;;;2.50;;
28623;SDS011;15813;46.932;19.658;2022-08-01T06:32:42;5.50;;;1.90;;
28623;SDS011;15813;46.932;19.658;2022-08-01T06:35:08;3.20;;;2.20;;
28623;SDS011;15813;46.932;19.658;2022-08-01T06:37:33;9.40;;;2.35;;
28623;SDS011;15813;46.932;19.658;2022-08-01T06:40:02;6.05;;;2.15;;
28623;SDS011;15813;46.932;19.658;2022-08-01T06:42:28;7.15;;;2.33;;
28623;SDS011;15813;46.932;19.658;2022-08-01T06:44:54;5.07;;;2.42;;
28623;SDS011;15813;46.932;19.658;2022-08-01T06:47:19;8.50;;;2.20;;
28623;SDS011;15813;46.932;19.658;2022-08-01T06:49:44;7.70;;;2.87;;
28623;SDS011;15813;46.932;19.658;2022-08-01T06:52:09;3.63;;;1.80;;
28623;SDS011;15813;46.932;19.658;2022-08-01T06:54:35;2.87;;;1.80;;
28623;SDS011;15813;46.932;19.658;2022-08-01T06:57:00;3.73;;;1.90;;
28623;SDS011;15813;46.932;19.658;2022-08-01T06:59:25;8.53;;;2.03;;
28623;SDS011;15813;46.932;19.658;2022-08-01T07:01:51;10.27;;;2.10;;
28623;SDS011;15813;46.932;19.658;2022-08-01T07:04:16;4.80;;;1.70;;
28623;SDS011;15813;46.932;19.658;2022-08-01T07:06:41;7.25;;;1.80;;
28623;SDS011;15813;46.932;19.658;2022-08-01T07:09:07;8.13;;;1.80;;
28623;SDS011;15813;46.932;19.658;2022-08-01T07:11:32;9.77;;;2.63;;
28623;SDS011;15813;46.932;19.658;2022-08-01T07:13:57;7.03;;;1.83;;
28623;SDS011;15813;46.932;19.658;2022-08-01T07:16:24;4.00;;;1.88;;
28623;SDS011;15813;46.932;19.658;2022-08-01T07:18:49;2.58;;;1.55;;
28623;SDS011;15813;46.932;19.658;2022-08-01T07:21:14;3.67;;;1.50;;
28623;SDS011;15813;46.932;19.658;2022-08-01T07:23:40;3.70;;;1.42;;
28623;SDS011;15813;46.932;19.658;2022-08-01T07:26:05;3.33;;;1.57;;
28623;SDS011;15813;46.932;19.658;2022-08-01T07:28:31;4.13;;;1.70;;
28623;SDS011;15813;46.932;19.658;2022-08-01T07:30:57;2.25;;;1.77;;
28623;SDS011;15813;46.932;19.658;2022-08-01T07:33:22;3.55;;;1.40;;
28623;SDS011;15813;46.932;19.658;2022-08-01T07:35:47;1.90;;;1.40;;
28623;SDS011;15813;46.932;19.658;2022-08-01T07:38:13;5.13;;;1.55;;
28623;SDS011;15813;46.932;19.658;2022-08-01T07:40:40;3.97;;;1.65;;
28623;SDS011;15813;46.932;19.658;2022-08-01T07:43:05;2.93;;;1.70;;
28623;SDS011;15813;46.932;19.658;2022-08-01T07:45:30;4.33;;;1.57;;
28623;SDS011;15813;46.932;19.658;2022-08-01T07:47:55;5.47;;;1.70;;
28623;SDS011;15813;46.932;19.658;2022-08-01T07:50:21;3.20;;;1.70;;
28623;SDS011;15813;46.932;19.658;2022-08-01T07:52:46;7.03;;;2.05;;
28623;SDS011;15813;46.932;19.658;2022-08-01T07:55:12;5.68;;;2.13;;
28623;SDS011;15813;46.932;19.658;2022-08-01T07:57:37;1.70;;;1.50;;
28623;SDS011;15813;46.932;19.658;2022-08-01T08:00:03;1.38;;;1.27;;
28623;SDS011;15813;46.932;19.658;2022-08-01T08:02:30;3.33;;;1.58;;
28623;SDS011;15813;46.932;19.658;2022-08-01T08:04:55;2.80;;;1.67;;
28623;SDS011;15813;46.932;19.658;2022-08-01T08:07:20;3.47;;;1.40;;
28623;SDS011;15813;46.932;19.658;2022-08-01T08:09:46;4.22;;;1.70;;
28623;SDS011;15813;46.932;19.658;2022-08-01T08:12:11;6.50;;;1.52;;
28623;SDS011;15813;46.932;19.658;2022-08-01T08:14:37;2.28;;;1.65;;
28623;SDS011;15813;46.932;19.658;2022-08-01T08:17:02;8.35;;;2.08;;
28623;SDS011;15813;46.932;19.658;2022-08-01T08:19:28;3.40;;;1.73;;
28623;SDS011;15813;46.932;19.658;2022-08-01T08:21:53;5.60;;;1.80;;
28623;SDS011;15813;46.932;19.658;2022-08-01T08:24:19;9.93;;;1.73;;
28623;SDS011;15813;46.932;19.658;2022-08-01T08:26:45;2.80;;;1.70;;
28623;SDS011;15813;46.932;19.658;2022-08-01T08:29:10;3.40;;;1.38;;
28623;SDS011;15813;46.932;19.658;2022-08-01T08:31:36;5.53;;;1.80;;
28623;SDS011;15813;46.932;19.658;2022-08-01T08:34:01;1.77;;;1.50;;
28623;SDS011;15813;46.932;19.658;2022-08-01T08:36:26;3.05;;;1.20;;
28623;SDS011;15813;46.932;19.658;2022-08-01T08:38:52;5.07;;;1.10;;
28623;SDS011;15813;46.932;19.658;2022-08-01T08:41:17;2.60;;;1.33;;
28623;SDS011;15813;46.932;19.658;2022-08-01T08:43:42;3.70;;;1.63;;
28623;SDS011;15813;46.932;19.658;2022-08-01T08:46:08;1.48;;;1.30;;
28623;SDS011;15813;46.932;19.658;2022-08-01T08:48:34;6.93;;;1.83;;
28623;SDS011;15813;46.932;19.658;2022-08-01T08:51:00;6.63;;;1.90;;
28623;SDS011;15813;46.932;19.658;2022-08-01T08:53:26;4.00;;;1.88;;
28623;SDS011;15813;46.932;19.658;2022-08-01T08:55:51;4.38;;;2.10;;
28623;SDS011;15813;46.932;19.658;2022-08-01T08:58:18;2.47;;;1.50;;
28623;SDS011;15813;46.932;19.658;2022-08-01T09:00:44;1.70;;;1.50;;
28623;SDS011;15813;46.932;19.658;2022-08-01T09:03:09;4.10;;;1.60;;
28623;SDS011;15813;46.932;19.658;2022-08-01T09:05:35;4.25;;;1.80;;
28623;SDS011;15813;46.932;19.658;2022-08-01T09:08:00;5.00;;;1.67;;
28623;SDS011;15813;46.932;19.658;2022-08-01T09:10:25;2.17;;;1.43;;
28623;SDS011;15813;46.932;19.658;2022-08-01T09:18:08;3.35;;;1.95;;
28623;SDS011;15813;46.932;19.658;2022-08-01T09:20:33;6.87;;;4.10;;
28623;SDS011;15813;46.932;19.658;2022-08-01T09:23:02;9.32;;;5.50;;
28623;SDS011;15813;46.932;19.658;2022-08-01T09:25:27;11.23;;;4.07;;
28623;SDS011;15813;46.932;19.658;2022-08-01T09:28:04;3.28;;;1.80;;
28623;SDS011;15813;46.932;19.658;2022-08-01T09:30:32;2.47;;;1.85;;
28623;SDS011;15813;46.932;19.658;2022-08-01T09:33:02;3.45;;;1.95;;
28623;SDS011;15813;46.932;19.658;2022-08-01T09:35:28;6.68;;;2.63;;
28623;SDS011;15813;46.932;19.658;2022-08-01T09:40:48;4.13;;;1.85;;
28623;SDS011;15813;46.932;19.658;2022-08-01T09:43:14;2.92;;;2.45;;
28623;SDS011;15813;46.932;19.658;2022-08-01T09:45:39;5.27;;;2.13;;
28623;SDS011;15813;46.932;19.658;2022-08-01T09:48:08;2.47;;;2.10;;
28623;SDS011;15813;46.932;19.658;2022-08-01T09:50:43;3.63;;;1.88;;
28623;SDS011;15813;46.932;19.658;2022-08-01T09:53:09;5.32;;;2.20;;
28623;SDS011;15813;46.932;19.658;2022-08-01T09:55:34;4.38;;;2.25;;
28623;SDS011;15813;46.932;19.658;2022-08-01T09:57:59;7.15;;;2.15;;
28623;SDS011;15813;46.932;19.658;2022-08-01T10:00:26;4.40;;;2.25;;
28623;SDS011;15813;46.932;19.658;2022-08-01T10:02:51;7.25;;;1.80;;
28623;SDS011;15813;46.932;19.658;2022-08-01T10:05:17;2.87;;;1.73;;
28623;SDS011;15813;46.932;19.658;2022-08-01T10:07:55;7.18;;;1.95;;
28623;SDS011;15813;46.932;19.658;2022-08-01T10:10:21;89.10;;;5.93;;
28623;SDS011;15813;46.932;19.658;2022-08-01T10:12:46;4.53;;;1.87;;
28623;SDS011;15813;46.932;19.658;2022-08-01T10:15:15;1.85;;;1.52;;
28623;SDS011;15813;46.932;19.658;2022-08-01T10:17:41;2.15;;;1.67;;
28623;SDS011;15813;46.932;19.658;2022-08-01T10:20:11;2.90;;;1.88;;
28623;SDS011;15813;46.932;19.658;2022-08-01T10:22:37;6.90;;;2.13;;
28623;SDS011;15813;46.932;19.658;2022-08-01T10:25:03;96.43;;;7.22;;
28623;SDS011;15813;46.932;19.658;2022-08-01T10:27:29;11.48;;;2.38;;
28623;SDS011;15813;46.932;19.658;2022-08-01T10:29:57;5.13;;;2.28;;
28623;SDS011;15813;46.932;19.658;2022-08-01T10:32:25;5.25;;;2.10;;
28623;SDS011;15813;46.932;19.658;2022-08-01T10:34:51;8.55;;;2.00;;
28623;SDS011;15813;46.932;19.658;2022-08-01T10:37:17;3.75;;;2.20;;
28623;SDS011;15813;46.932;19.658;2022-08-01T10:39:43;5.78;;;2.10;;
28623;SDS011;15813;46.932;19.658;2022-08-01T10:42:09;1.75;;;1.58;;
28623;SDS011;15813;46.932;19.658;2022-08-01T10:44:34;2.33;;;1.80;;
28623;SDS011;15813;46.932;19.658;2022-08-01T10:47:06;1.85;;;1.70;;
28623;SDS011;15813;46.932;19.658;2022-08-01T10:49:34;6.00;;;1.90;;
28623;SDS011;15813;46.932;19.658;2022-08-01T10:54:26;6.20;;;1.70;;
28623;SDS011;15813;46.932;19.658;2022-08-01T10:56:52;2.55;;;1.60;;
28623;SDS011;15813;46.932;19.658;2022-08-01T10:59:21;5.25;;;2.80;;
28623;SDS011;15813;46.932;19.658;2022-08-01T11:04:24;5.10;;;2.03;;
28623;SDS011;15813;46.932;19.658;2022-08-01T11:09:29;1.83;;;1.20;;
28623;SDS011;15813;46.932;19.658;2022-08-01T11:17:39;1.63;;;1.40;;
28623;SDS011;15813;46.932;19.658;2022-08-01T11:20:13;2.67;;;1.60;;
28623;SDS011;15813;46.932;19.658;2022-08-01T11:26:12;3.72;;;1.40;;
28623;SDS011;15813;46.932;19.658;2022-08-01T11:30:52;3.55;;;1.70;;
28623;SDS011;15813;46.932;19.658;2022-08-01T11:33:47;3.13;;;1.67;;
28623;SDS011;15813;46.932;19.658;2022-08-01T11:41:31;2.75;;;1.80;;
28623;SDS011;15813;46.932;19.658;2022-08-01T11:44:04;1.90;;;1.40;;
28623;SDS011;15813;46.932;19.658;2022-08-01T11:47:14;4.28;;;2.00;;
28623;SDS011;15813;46.932;19.658;2022-08-01T11:54:25;2.53;;;1.50;;
28623;SDS011;15813;46.932;19.658;2022-08-01T11:56:53;1.40;;;1.27;;
28623;SDS011;15813;46.932;19.658;2022-08-01T11:59:18;1.65;;;1.50;;
28623;SDS011;15813;46.932;19.658;2022-08-01T12:01:44;4.22;;;1.70;;
28623;SDS011;15813;46.932;19.658;2022-08-01T12:04:09;1.83;;;1.47;;
28623;SDS011;15813;46.932;19.658;2022-08-01T12:06:35;2.90;;;1.40;;
28623;SDS011;15813;46.932;19.658;2022-08-01T12:09:19;4.25;;;1.40;;
28623;SDS011;15813;46.932;19.658;2022-08-01T12:11:45;4.53;;;1.90;;
28623;SDS011;15813;46.932;19.658;2022-08-01T12:14:15;3.70;;;1.40;;
28623;SDS011;15813;46.932;19.658;2022-08-01T12:16:47;1.88;;;1.27;;
28623;SDS011;15813;46.932;19.658;2022-08-01T12:19:17;3.53;;;1.65;;
28623;SDS011;15813;46.932;19.658;2022-08-01T12:21:42;3.42;;;1.50;;
28623;SDS011;15813;46.932;19.658;2022-08-01T12:24:07;2.17;;;1.50;;
28623;SDS011;15813;46.932;19.658;2022-08-01T12:26:40;1.70;;;1.60;;
28623;SDS011;15813;46.932;19.658;2022-08-01T12:29:05;8.52;;;1.70;;
28623;SDS011;15813;46.932;19.658;2022-08-01T12:31:31;6.32;;;1.40;;
28623;SDS011;15813;46.932;19.658;2022-08-01T12:33:57;6.07;;;1.55;;
28623;SDS011;15813;46.932;19.658;2022-08-01T12:36:31;4.25;;;1.35;;
28623;SDS011;15813;46.932;19.658;2022-08-01T12:38:56;2.03;;;1.20;;
28623;SDS011;15813;46.932;19.658;2022-08-01T12:41:24;2.93;;;1.60;;
28623;SDS011;15813;46.932;19.658;2022-08-01T12:43:50;2.97;;;1.55;;
28623;SDS011;15813;46.932;19.658;2022-08-01T12:46:15;3.00;;;1.77;;
28623;SDS011;15813;46.932;19.658;2022-08-01T12:48:42;5.07;;;1.73;;
28623;SDS011;15813;46.932;19.658;2022-08-01T12:51:08;3.83;;;1.38;;
28623;SDS011;15813;46.932;19.658;2022-08-01T12:53:34;9.75;;;2.30;;
28623;SDS011;15813;46.932;19.658;2022-08-01T12:55:59;2.17;;;1.10;;
28623;SDS011;15813;46.932;19.658;2022-08-01T12:58:32;2.40;;;1.10;;
28623;SDS011;15813;46.932;19.658;2022-08-01T13:01:31;5.47;;;1.42;;
28623;SDS011;15813;46.932;19.658;2022-08-01T13:03:59;2.83;;;1.05;;
28623;SDS011;15813;46.932;19.658;2022-08-01T13:06:27;1.98;;;1.30;;
28623;SDS011;15813;46.932;19.658;2022-08-01T13:08:53;3.03;;;1.52;;
28623;SDS011;15813;46.932;19.658;2022-08-01T13:11:18;2.10;;;1.40;;
28623;SDS011;15813;46.932;19.658;2022-08-01T13:13:48;4.03;;;1.40;;
28623;SDS011;15813;46.932;19.658;2022-08-01T13:16:18;1.15;;;1.05;;
28623;SDS011;15813;46.932;19.658;2022-08-01T13:18:48;1.23;;;1.13;;
28623;SDS011;15813;46.932;19.658;2022-08-01T13:21:18;7.47;;;1.67;;
28623;SDS011;15813;46.932;19.658;2022-08-01T13:23:59;3.42;;;1.20;;
28623;SDS011;15813;46.932;19.658;2022-08-01T13:29:04;4.68;;;1.88;;
28623;SDS011;15813;46.932;19.658;2022-08-01T13:31:37;3.35;;;1.20;;
28623;SDS011;15813;46.932;19.658;2022-08-01T13:34:03;1.77;;;1.35;;
28623;SDS011;15813;46.932;19.658;2022-08-01T13:36:29;1.80;;;1.10;;
28623;SDS011;15813;46.932;19.658;2022-08-01T13:38:56;3.63;;;1.60;;
28623;SDS011;15813;46.932;19.658;2022-08-01T13:41:40;2.33;;;1.20;;
28623;SDS011;15813;46.932;19.658;2022-08-01T13:44:05;1.42;;;1.17;;
28623;SDS011;15813;46.932;19.658;2022-08-01T13:46:31;6.47;;;1.50;;
28623;SDS011;15813;46.932;19.658;2022-08-01T13:48:56;3.58;;;1.38;;
28623;SDS011;15813;46.932;19.658;2022-08-01T13:51:21;1.45;;;1.35;;
28623;SDS011;15813;46.932;19.658;2022-08-01T13:53:47;2.88;;;1.38;;
28623;SDS011;15813;46.932;19.658;2022-08-01T13:56:12;2.40;;;1.40;;
28623;SDS011;15813;46.932;19.658;2022-08-01T13:58:41;1.75;;;1.40;;
28623;SDS011;15813;46.932;19.658;2022-08-01T14:03:31;7.03;;;1.30;;
28623;SDS011;15813;46.932;19.658;2022-08-01T14:05:57;2.40;;;1.17;;
28623;SDS011;15813;46.932;19.658;2022-08-01T14:08:22;3.78;;;1.30;;
28623;SDS011;15813;46.932;19.658;2022-08-01T14:10:47;7.53;;;1.40;;
28623;SDS011;15813;46.932;19.658;2022-08-01T14:13:13;3.38;;;1.20;;
28623;SDS011;15813;46.932;19.658;2022-08-01T14:15:39;7.30;;;1.80;;
28623;SDS011;15813;46.932;19.658;2022-08-01T14:18:04;4.35;;;1.23;;
28623;SDS011;15813;46.932;19.658;2022-08-01T14:20:30;3.03;;;1.20;;
28623;SDS011;15813;46.932;19.658;2022-08-01T14:22:55;3.03;;;1.60;;
28623;SDS011;15813;46.932;19.658;2022-08-01T14:25:20;2.15;;;1.42;;
28623;SDS011;15813;46.932;19.658;2022-08-01T14:27:46;2.78;;;1.10;;
28623;SDS011;15813;46.932;19.658;2022-08-01T14:30:12;51.15;;;15.60;;
28623;SDS011;15813;46.932;19.658;2022-08-01T14:32:37;7.45;;;1.10;;
28623;SDS011;15813;46.932;19.658;2022-08-01T14:35:04;2.07;;;1.07;;
28623;SDS011;15813;46.932;19.658;2022-08-01T14:37:30;3.10;;;1.90;;
28623;SDS011;15813;46.932;19.658;2022-08-01T14:39:56;2.00;;;1.10;;
28623;SDS011;15813;46.932;19.658;2022-08-01T14:42:21;2.22;;;1.02;;
28623;SDS011;15813;46.932;19.658;2022-08-01T14:44:47;2.27;;;1.27;;
28623;SDS011;15813;46.932;19.658;2022-08-01T14:47:12;3.08;;;1.27;;
28623;SDS011;15813;46.932;19.658;2022-08-01T14:49:37;1.20;;;1.10;;
28623;SDS011;15813;46.932;19.658;2022-08-01T14:52:02;1.30;;;1.00;;
28623;SDS011;15813;46.932;19.658;2022-08-01T14:54:28;3.73;;;1.40;;
28623;SDS011;15813;46.932;19.658;2022-08-01T14:56:53;4.93;;;1.40;;
28623;SDS011;15813;46.932;19.658;2022-08-01T14:59:18;1.55;;;1.30;;
28623;SDS011;15813;46.932;19.658;2022-08-01T15:01:44;2.05;;;1.27;;
28623;SDS011;15813;46.932;19.658;2022-08-01T15:04:09;2.70;;;1.25;;
28623;SDS011;15813;46.932;19.658;2022-08-01T15:06:35;1.50;;;1.40;;
28623;SDS011;15813;46.932;19.658;2022-08-01T15:09:00;2.20;;;0.93;;
28623;SDS011;15813;46.932;19.658;2022-08-01T15:11:26;2.27;;;1.23;;
28623;SDS011;15813;46.932;19.658;2022-08-01T15:13:52;2.78;;;1.10;;
28623;SDS011;15813;46.932;19.658;2022-08-01T15:16:36;2.20;;;1.17;;
28623;SDS011;15813;46.932;19.658;2022-08-01T15:19:01;1.55;;;1.35;;
28623;SDS011;15813;46.932;19.658;2022-08-01T15:21:27;1.73;;;1.20;;
28623;SDS011;15813;46.932;19.658;2022-08-01T15:23:52;1.83;;;1.53;;